San Antonio North's Hourly Summary for Sunday, May 13, 2018
Hour Temp
(f)
RH
(%)
Solar Rad.
(MJ/m2)
Rainfall
(in)
Wind
(mph)
5/13/2018 12:00 AM 74 78 0 0 1.41
5/13/2018 1:00 AM 74 82 0 0 1.35
5/13/2018 2:00 AM 73 83 0 0 1.47
5/13/2018 3:00 AM 73 83 0 0 1.27
5/13/2018 4:00 AM 73 83 0 0 0.84
5/13/2018 5:00 AM 73 82 0 0 0.66
5/13/2018 6:00 AM 73 85 0 0 0.45
5/13/2018 7:00 AM 73 86 0 0 0.47
5/13/2018 8:00 AM 73 86 0.09 0 0.5
5/13/2018 9:00 AM 74 79 0.34 0 0.74
5/13/2018 10:00 AM 77 73 0.76 0 1.33
5/13/2018 11:00 AM 80 61 1.67 0 1.55
5/13/2018 12:00 PM 83 55 2.12 0 1.91
5/13/2018 1:00 PM 84 53 1.8 0 1.55
5/13/2018 2:00 PM 87 47 2.46 0 1.58
5/13/2018 3:00 PM 89 43 2.24 0 1.22
5/13/2018 4:00 PM 91 38 2.51 0 1.6
5/13/2018 5:00 PM 90 37 1.64 0 1.64
5/13/2018 6:00 PM 90 38 1.17 0 1.07
5/13/2018 7:00 PM 89 41 0.65 0 1.57
5/13/2018 8:00 PM 86 46 0.3 0 2.16
5/13/2018 9:00 PM 83 52 0.01 0 1.94
5/13/2018 10:00 PM 80 59 0 0 2.2
5/13/2018 11:00 PM 78 67 0 0 2.23
Data Summary 80 64 17.76 0.00 1.36